Time;durP1;ratioP1;P1;durP2;ratioP2;P2;SDS_P1;SDS_P2;PMS_P1;PMS_P2;Temp;Humidity;BMP_temperature;BMP_pressure;BME280_temperature;BME280_humidity;BME280_pressure;Samples;Min_cycle;Max_cycle;Signal;HPM_P1;HPM_P2
2023/04/08 00:00:00;;;;;;;21.67;7.63;;;6.40;99.90;;;;;;4920424;29;20442;-82
2023/04/08 00:02:26;;;;;;;21.25;7.90;;;6.40;99.90;;;;;;4929262;29;20044;-84
2023/04/08 00:04:54;;;;;;;27.58;7.95;;;6.40;99.90;;;;;;4904116;29;20479;-84
2023/04/08 00:07:21;;;;;;;19.10;7.03;;;6.40;99.90;;;;;;4920177;29;20119;-84
2023/04/08 00:09:47;;;;;;;16.63;6.47;;;6.40;99.90;;;;;;4937426;29;20047;-83
2023/04/08 00:12:14;;;;;;;25.17;7.35;;;6.40;99.90;;;;;;4937484;29;20478;-83
2023/04/08 00:17:44;;;;;;;24.05;7.20;;;6.30;99.90;;;;;;4937622;29;20047;-84
2023/04/08 00:20:11;;;;;;;16.90;7.00;;;6.30;99.90;;;;;;4920097;29;20378;-84
2023/04/08 00:22:38;;;;;;;20.10;6.63;;;6.20;99.90;;;;;;4920743;29;20394;-84
2023/04/08 00:27:51;;;;;;;25.70;7.28;;;6.20;99.90;;;;;;4936701;29;20463;-83
2023/04/08 00:30:18;;;;;;;17.92;6.57;;;6.20;99.90;;;;;;4904815;29;20067;-83
2023/04/08 00:32:44;;;;;;;21.70;6.90;;;6.20;99.90;;;;;;4920372;29;20080;-83
2023/04/08 00:38:00;;;;;;;17.88;7.05;;;6.10;99.90;;;;;;4920471;29;20130;-84
2023/04/08 00:40:27;;;;;;;16.67;6.35;;;6.10;99.90;;;;;;4904497;29;20050;-84
2023/04/08 00:42:53;;;;;;;23.52;7.60;;;6.10;99.90;;;;;;4905032;29;20451;-83
2023/04/08 00:45:20;;;;;;;15.95;6.10;;;6.00;99.90;;;;;;4920278;29;20127;-83
2023/04/08 00:47:51;;;;;;;19.35;7.13;;;6.00;99.90;;;;;;4936478;29;20056;-83
2023/04/08 00:50:19;;;;;;;23.05;7.88;;;6.00;99.90;;;;;;4920375;29;20040;-83
2023/04/08 00:52:45;;;;;;;17.08;6.22;;;6.00;99.90;;;;;;4904403;29;20107;-83
2023/04/08 00:57:58;;;;;;;18.33;6.47;;;5.90;99.90;;;;;;4920256;29;20058;-83
2023/04/08 01:00:25;;;;;;;21.27;6.85;;;5.90;99.90;;;;;;4904013;29;20039;-83
2023/04/08 01:02:51;;;;;;;17.25;6.68;;;5.80;99.90;;;;;;4936861;29;20044;-83
2023/04/08 01:05:18;;;;;;;22.60;6.85;;;5.80;99.90;;;;;;4901033;29;20103;-83
2023/04/08 01:07:45;;;;;;;16.95;6.10;;;5.70;99.90;;;;;;4917853;29;20051;-83
2023/04/08 01:10:13;;;;;;;14.13;5.78;;;5.70;99.90;;;;;;4932104;29;20052;-83
2023/04/08 01:12:39;;;;;;;18.13;6.53;;;5.70;99.90;;;;;;4939178;29;20036;-82
2023/04/08 01:17:36;;;;;;;18.95;6.03;;;5.60;99.90;;;;;;4939473;29;20058;-83
2023/04/08 01:20:03;;;;;;;20.58;6.47;;;5.60;99.90;;;;;;4939078;29;20062;-82
2023/04/08 01:22:30;;;;;;;13.35;5.75;;;5.50;99.90;;;;;;4939546;29;20048;-83
2023/04/08 01:24:57;;;;;;;14.18;5.82;;;5.50;99.90;;;;;;4939261;29;20043;-83
2023/04/08 01:27:24;;;;;;;20.75;7.22;;;5.50;99.90;;;;;;4939390;29;20063;-81
2023/04/08 01:29:51;;;;;;;17.55;6.03;;;5.50;99.90;;;;;;4939210;29;20378;-83
2023/04/08 01:32:18;;;;;;;20.02;6.43;;;5.40;99.90;;;;;;4939185;29;20083;-82
2023/04/08 01:34:46;;;;;;;20.65;6.03;;;5.40;99.90;;;;;;4922564;29;20040;-83
2023/04/08 01:37:12;;;;;;;16.35;5.97;;;5.40;99.90;;;;;;4939092;29;20052;-84
2023/04/08 01:39:39;;;;;;;14.70;5.82;;;5.40;99.90;;;;;;4922693;29;20054;-83
2023/04/08 01:42:06;;;;;;;14.70;5.80;;;5.30;99.90;;;;;;4923335;29;20142;-84
2023/04/08 01:47:22;;;;;;;18.17;6.40;;;5.30;99.90;;;;;;4938274;29;20044;-84
2023/04/08 01:49:49;;;;;;;15.75;5.07;;;5.20;99.90;;;;;;4923637;29;20458;-84
2023/04/08 01:52:15;;;;;;;13.35;4.38;;;5.20;99.90;;;;;;4939557;29;20039;-84
2023/04/08 01:54:46;;;;;;;15.38;5.68;;;5.10;99.90;;;;;;4923042;29;20044;-85
2023/04/08 01:57:12;;;;;;;21.30;6.07;;;5.10;99.90;;;;;;4941103;29;20127;-83
2023/04/08 01:59:39;;;;;;;15.90;5.13;;;5.10;99.90;;;;;;4924201;29;20047;-84
2023/04/08 02:02:06;;;;;;;12.30;4.50;;;5.10;99.90;;;;;;4924338;29;20399;-84
2023/04/08 02:07:18;;;;;;;12.43;4.82;;;5.00;99.90;;;;;;4938774;29;20169;-84
2023/04/08 02:09:45;;;;;;;15.68;5.15;;;5.00;99.90;;;;;;4938666;29;20063;-83
2023/04/08 02:12:11;;;;;;;11.23;4.72;;;4.90;99.90;;;;;;4938445;29;20052;-84
2023/04/08 02:17:28;;;;;;;14.23;5.20;;;4.80;99.90;;;;;;4938673;29;20039;-84
2023/04/08 02:19:55;;;;;;;12.15;4.72;;;4.80;99.90;;;;;;4937290;29;20039;-84
2023/04/08 02:22:22;;;;;;;14.45;4.63;;;4.70;99.90;;;;;;4938161;29;20076;-84
2023/04/08 02:24:49;;;;;;;14.23;4.68;;;4.70;99.90;;;;;;4922311;29;20036;-83
2023/04/08 02:27:16;;;;;;;16.23;5.07;;;4.70;99.90;;;;;;4937503;29;20062;-84
2023/04/08 02:29:42;;;;;;;14.07;4.55;;;4.60;99.90;;;;;;4922384;29;20036;-84
2023/04/08 02:32:09;;;;;;;13.45;4.93;;;4.60;99.90;;;;;;4938176;29;20134;-84
2023/04/08 02:37:41;;;;;;;13.10;4.25;;;4.50;99.90;;;;;;4937956;29;20459;-84
2023/04/08 02:40:08;;;;;;;16.08;4.53;;;4.50;99.90;;;;;;4921866;29;20382;-84
2023/04/08 02:42:35;;;;;;;14.32;4.15;;;4.50;99.90;;;;;;4939030;29;20043;-83
2023/04/08 02:47:33;;;;;;;17.00;4.60;;;4.50;99.90;;;;;;4938194;29;20126;-84
2023/04/08 02:50:00;;;;;;;14.15;4.38;;;4.40;99.90;;;;;;4937708;29;20051;-84
2023/04/08 02:52:27;;;;;;;15.73;5.40;;;4.40;99.90;;;;;;4921951;29;20043;-84
2023/04/08 02:57:58;;;;;;;13.80;4.70;;;4.40;99.90;;;;;;4937642;29;20555;-83
2023/04/08 03:00:24;;;;;;;10.30;3.75;;;4.30;99.90;;;;;;4937152;29;20047;-84
2023/04/08 03:02:51;;;;;;;9.30;3.83;;;4.30;99.90;;;;;;4937450;29;20146;-84
2023/04/08 03:05:18;;;;;;;10.65;3.67;;;4.30;99.90;;;;;;4939193;29;20087;-84
2023/04/08 03:07:45;;;;;;;12.02;4.38;;;4.30;99.90;;;;;;4939995;29;20051;-84
2023/04/08 03:10:12;;;;;;;11.05;3.42;;;4.30;99.90;;;;;;4924893;29;20045;-83
2023/04/08 03:12:38;;;;;;;9.07;3.35;;;4.30;99.90;;;;;;4924124;29;20051;-84
2023/04/08 03:17:53;;;;;;;11.70;3.88;;;4.30;99.90;;;;;;4940471;29;20042;-84
2023/04/08 03:20:19;;;;;;;12.63;3.67;;;4.30;99.90;;;;;;4939964;29;20134;-85
2023/04/08 03:22:46;;;;;;;10.57;3.08;;;4.20;99.90;;;;;;4940382;29;20051;-84
2023/04/08 03:27:43;;;;;;;9.77;3.20;;;4.20;99.90;;;;;;4956513;29;20047;-84
2023/04/08 03:30:10;;;;;;;10.48;3.45;;;4.20;99.90;;;;;;4940449;29;20046;-83
2023/04/08 03:32:37;;;;;;;8.27;3.17;;;4.20;99.90;;;;;;4939482;29;20134;-84
2023/04/08 03:37:49;;;;;;;11.63;3.90;;;4.10;99.90;;;;;;4940158;29;20065;-84
2023/04/08 03:40:16;;;;;;;15.90;3.78;;;4.10;99.90;;;;;;4939719;29;20106;-83
2023/04/08 03:42:43;;;;;;;12.45;3.50;;;4.10;99.90;;;;;;4940034;29;20422;-84
2023/04/08 03:45:11;;;;;;;11.75;3.70;;;4.00;99.90;;;;;;4939919;29;20374;-83
2023/04/08 03:47:37;;;;;;;8.15;3.35;;;4.00;99.90;;;;;;4923665;29;20047;-83
2023/04/08 03:50:04;;;;;;;11.80;3.42;;;4.00;99.90;;;;;;4924239;29;20098;-83
2023/04/08 03:52:31;;;;;;;9.55;2.75;;;3.90;99.90;;;;;;4940109;29;20047;-83
2023/04/08 03:54:59;;;;;;;13.60;3.53;;;3.90;99.90;;;;;;4939601;29;20044;-84
2023/04/08 03:57:26;;;;;;;7.10;3.22;;;3.80;99.90;;;;;;4940055;29;20039;-84
2023/04/08 03:59:52;;;;;;;10.43;3.13;;;3.90;99.90;;;;;;4939416;29;20450;-84
2023/04/08 04:02:19;;;;;;;8.57;3.05;;;3.80;99.90;;;;;;4939694;29;20480;-84
2023/04/08 04:04:47;;;;;;;10.63;3.72;;;3.80;99.90;;;;;;4939505;29;20142;-84
2023/04/08 04:07:14;;;;;;;10.20;3.75;;;3.80;99.90;;;;;;4923291;29;20061;-84
2023/04/08 04:09:41;;;;;;;13.30;3.63;;;3.80;99.90;;;;;;4939650;29;20082;-83
2023/04/08 04:12:07;;;;;;;12.25;3.75;;;3.70;99.90;;;;;;4939773;29;20086;-84
2023/04/08 04:14:35;;;;;;;9.50;3.25;;;3.60;99.90;;;;;;4939101;29;20043;-84
2023/04/08 04:17:02;;;;;;;9.48;3.20;;;3.50;99.90;;;;;;4956497;29;20039;-84
2023/04/08 04:19:28;;;;;;;8.35;2.97;;;3.50;99.90;;;;;;4938978;29;20039;-84
2023/04/08 04:21:55;;;;;;;11.25;3.65;;;3.50;99.90;;;;;;4956479;29;20130;-82
2023/04/08 04:24:22;;;;;;;8.13;3.35;;;3.50;99.90;;;;;;4939803;29;20043;-82
2023/04/08 04:26:49;;;;;;;7.90;2.85;;;3.40;99.90;;;;;;4939253;29;20149;-82
2023/04/08 04:29:15;;;;;;;8.65;2.83;;;3.50;99.90;;;;;;4923679;29;20141;-82
2023/04/08 04:31:42;;;;;;;10.02;2.97;;;3.40;99.90;;;;;;4956438;29;20043;-82
2023/04/08 04:34:11;;;;;;;10.52;3.30;;;3.40;99.90;;;;;;4922871;29;20050;-82
2023/04/08 04:36:38;;;;;;;11.95;2.92;;;3.40;99.90;;;;;;4956367;29;20117;-83
2023/04/08 04:39:04;;;;;;;8.35;2.53;;;3.30;99.90;;;;;;4939487;29;20398;-83
2023/04/08 04:41:31;;;;;;;10.23;2.97;;;3.30;99.90;;;;;;4938966;29;20485;-82
2023/04/08 04:46:45;;;;;;;10.70;2.72;;;3.30;99.90;;;;;;4942549;29;20048;-82
2023/04/08 04:49:12;;;;;;;8.77;3.15;;;3.30;99.90;;;;;;4943221;29;20462;-83
2023/04/08 04:51:38;;;;;;;7.95;3.08;;;3.30;99.90;;;;;;4943085;29;20138;-83
2023/04/08 04:57:10;;;;;;;8.45;2.67;;;3.20;99.90;;;;;;4960187;29;20453;-83
2023/04/08 04:59:36;;;;;;;8.00;2.85;;;3.20;99.90;;;;;;4942300;29;20054;-84
2023/04/08 05:02:03;;;;;;;9.13;2.95;;;3.10;99.90;;;;;;4942994;29;20043;-83
2023/04/08 05:07:21;;;;;;;8.45;2.22;;;3.00;99.90;;;;;;4941992;29;20070;-83
2023/04/08 05:09:47;;;;;;;7.53;2.58;;;3.00;99.90;;;;;;4943115;29;20045;-83
2023/04/08 05:12:14;;;;;;;6.25;2.28;;;3.00;99.90;;;;;;4943215;29;20055;-83
2023/04/08 05:14:41;;;;;;;9.63;2.88;;;3.00;99.90;;;;;;4926389;29;20047;-83
2023/04/08 05:17:07;;;;;;;8.80;2.92;;;3.00;99.90;;;;;;4942690;29;20051;-83
2023/04/08 05:19:34;;;;;;;7.28;2.67;;;2.90;99.90;;;;;;4958924;29;20457;-83
2023/04/08 05:22:01;;;;;;;8.23;3.42;;;2.90;99.90;;;;;;4942854;29;20054;-83
2023/04/08 05:27:14;;;;;;;8.13;3.00;;;2.90;99.90;;;;;;4941886;29;20148;-84
2023/04/08 05:29:41;;;;;;;17.00;3.75;;;2.80;99.90;;;;;;4926728;29;20051;-83
2023/04/08 05:32:08;;;;;;;13.02;3.38;;;2.80;99.90;;;;;;4942839;29;20039;-84
2023/04/08 05:37:25;;;;;;;10.35;3.40;;;2.80;99.90;;;;;;4942258;29;20114;-83
2023/04/08 05:39:52;;;;;;;9.05;3.17;;;2.80;99.90;;;;;;4925874;29;20438;-82
2023/04/08 05:42:18;;;;;;;17.05;3.72;;;2.80;99.90;;;;;;4942336;29;20043;-83
2023/04/08 05:44:45;;;;;;;10.52;3.90;;;2.80;99.90;;;;;;4926234;29;20039;-83
2023/04/08 05:47:13;;;;;;;11.20;3.40;;;2.80;99.90;;;;;;4941774;29;20047;-83
2023/04/08 05:49:40;;;;;;;11.50;3.40;;;2.90;99.90;;;;;;4926369;29;20051;-82
2023/04/08 05:52:07;;;;;;;8.82;3.20;;;2.90;99.90;;;;;;4942076;29;20051;-83
2023/04/08 05:54:36;;;;;;;10.95;3.80;;;2.90;99.90;;;;;;4924223;29;20039;-83
2023/04/08 05:57:02;;;;;;;15.38;4.13;;;2.90;99.90;;;;;;4942004;29;20458;-83
2023/04/08 05:59:29;;;;;;;10.50;4.30;;;2.90;99.90;;;;;;4941213;29;20469;-83
2023/04/08 06:01:56;;;;;;;11.38;3.45;;;3.00;99.90;;;;;;4926091;29;20057;-84
2023/04/08 06:07:10;;;;;;;10.07;3.22;;;3.10;99.90;;;;;;4957014;29;20050;-82
2023/04/08 06:09:36;;;;;;;13.13;4.40;;;3.20;99.90;;;;;;4941781;29;20047;-84
2023/04/08 06:12:03;;;;;;;12.32;3.83;;;3.30;99.90;;;;;;4941721;29;20043;-83
2023/04/08 06:14:32;;;;;;;10.77;4.07;;;3.30;99.90;;;;;;4941015;29;20465;-84
2023/04/08 06:16:59;;;;;;;14.82;4.28;;;3.40;99.90;;;;;;4941889;29;20135;-84
2023/04/08 06:19:26;;;;;;;16.30;4.40;;;3.60;99.90;;;;;;4940926;29;20094;-83
2023/04/08 06:21:57;;;;;;;15.25;4.63;;;3.70;99.90;;;;;;4958800;29;20031;-83
2023/04/08 06:27:09;;;;;;;11.77;4.57;;;3.90;99.90;;;;;;4957712;29;20047;-84
2023/04/08 06:29:36;;;;;;;11.70;4.50;;;4.00;99.90;;;;;;4958275;29;20039;-83
2023/04/08 06:32:03;;;;;;;13.93;4.25;;;4.10;99.90;;;;;;4941684;28;20039;-83
2023/04/08 06:34:30;;;;;;;11.88;4.05;;;4.30;99.90;;;;;;4940778;29;20110;-84
2023/04/08 06:36:56;;;;;;;15.27;4.80;;;4.50;99.90;;;;;;4941476;29;20074;-84
2023/04/08 06:39:23;;;;;;;15.40;4.88;;;4.60;99.90;;;;;;4925055;29;20066;-84
2023/04/08 06:41:50;;;;;;;16.38;5.20;;;4.70;99.90;;;;;;4941940;29;20391;-84
2023/04/08 06:44:35;;;;;;;16.85;4.80;;;4.80;99.90;;;;;;4940952;29;20466;-84
2023/04/08 06:47:02;;;;;;;19.15;5.75;;;4.90;99.90;;;;;;4940970;29;20059;-83
2023/04/08 06:49:29;;;;;;;22.88;6.45;;;5.00;99.90;;;;;;4927237;29;20381;-84
2023/04/08 06:51:55;;;;;;;14.32;5.35;;;5.10;99.90;;;;;;4942013;29;20047;-86
2023/04/08 06:56:53;;;;;;;14.45;4.97;;;5.30;99.90;;;;;;4942039;29;20470;-86
2023/04/08 06:59:20;;;;;;;17.20;4.95;;;5.50;99.90;;;;;;4941430;29;20472;-87
2023/04/08 07:01:47;;;;;;;14.73;5.40;;;5.70;99.90;;;;;;4942289;29;20098;-87
2023/04/08 07:04:14;;;;;;;17.65;5.20;;;5.90;99.90;;;;;;4926646;29;20077;-87
2023/04/08 07:06:50;;;;;;;22.20;5.80;;;6.20;99.90;;;;;;4940415;29;20066;-87
2023/04/08 07:09:17;;;;;;;16.38;5.63;;;6.40;99.90;;;;;;4942083;29;20047;-86
2023/04/08 07:11:44;;;;;;;14.88;5.43;;;6.60;99.90;;;;;;4941768;29;20106;-88
2023/04/08 07:14:11;;;;;;;17.15;5.55;;;6.80;99.90;;;;;;4940923;29;20651;-88
2023/04/08 07:16:38;;;;;;;12.77;4.97;;;7.00;99.90;;;;;;4926477;29;20130;-87
2023/04/08 07:19:05;;;;;;;22.65;4.82;;;7.10;99.90;;;;;;4926558;29;20047;-89
2023/04/08 07:21:32;;;;;;;19.75;5.05;;;7.20;99.90;;;;;;4925689;29;20055;-87
2023/04/08 07:26:45;;;;;;;20.85;5.50;;;7.60;99.90;;;;;;4940673;29;20448;-86
2023/04/08 07:29:11;;;;;;;19.50;6.75;;;7.90;99.90;;;;;;4925763;29;20486;-86
2023/04/08 07:31:38;;;;;;;17.55;5.38;;;8.10;99.90;;;;;;4925523;29;20050;-87
2023/04/08 07:36:51;;;;;;;19.48;5.68;;;8.50;99.90;;;;;;4957736;29;20078;-86
2023/04/08 07:39:18;;;;;;;22.67;6.63;;;8.70;99.90;;;;;;4924472;29;20047;-83
2023/04/08 07:41:45;;;;;;;15.98;5.68;;;8.90;99.90;;;;;;4924686;29;20470;-84
2023/04/08 07:46:57;;;;;;;19.08;6.15;;;9.10;99.90;;;;;;4940050;29;20055;-86
2023/04/08 07:49:24;;;;;;;17.23;5.97;;;9.30;99.90;;;;;;4924736;29;20043;-87
2023/04/08 07:51:51;;;;;;;14.65;5.53;;;9.50;99.90;;;;;;4940797;29;20054;-88
2023/04/08 07:54:20;;;;;;;20.73;5.22;;;9.70;99.90;;;;;;4932201;29;20036;-85
2023/04/08 07:56:47;;;;;;;13.13;5.25;;;9.80;99.90;;;;;;4921389;29;20048;-86
2023/04/08 07:59:14;;;;;;;17.27;5.95;;;9.90;99.90;;;;;;4936650;29;20151;-85
2023/04/08 08:01:41;;;;;;;17.80;5.88;;;10.00;99.90;;;;;;4938633;29;20052;-86
2023/04/08 08:06:54;;;;;;;16.50;5.65;;;10.40;99.90;;;;;;4956148;29;20203;-86
2023/04/08 08:09:21;;;;;;;16.73;6.05;;;10.50;99.90;;;;;;4924555;29;20059;-86
2023/04/08 08:11:48;;;;;;;18.05;5.57;;;10.70;99.90;;;;;;4940299;29;20043;-85
2023/04/08 08:14:16;;;;;;;14.23;5.68;;;10.80;99.90;;;;;;4939579;29;20043;-88
2023/04/08 08:16:43;;;;;;;13.07;5.93;;;10.90;99.90;;;;;;4940189;29;20050;-86
2023/04/08 08:19:11;;;;;;;15.93;6.00;;;11.10;99.90;;;;;;4923669;29;20043;-86
2023/04/08 08:21:38;;;;;;;15.85;5.90;;;11.10;99.90;;;;;;4924135;29;20051;-86
2023/04/08 08:24:07;;;;;;;17.15;5.93;;;11.20;99.90;;;;;;4926219;29;20035;-87
2023/04/08 08:26:35;;;;;;;14.38;5.32;;;11.20;99.90;;;;;;4939202;29;20075;-88
2023/04/08 08:29:02;;;;;;;13.05;5.07;;;11.40;99.90;;;;;;4922906;29;20110;-87
2023/04/08 08:31:28;;;;;;;19.95;5.63;;;11.60;99.90;;;;;;4922947;29;20057;-88
2023/04/08 08:33:55;;;;;;;14.48;4.90;;;11.60;99.90;;;;;;4922449;29;20094;-88
2023/04/08 08:36:22;;;;;;;13.90;5.50;;;11.70;99.90;;;;;;4939146;29;20146;-87
2023/04/08 08:38:50;;;;;;;14.57;5.03;;;11.80;99.90;;;;;;4923953;28;20085;-86
2023/04/08 08:41:17;;;;;;;14.68;5.28;;;12.00;99.90;;;;;;4923540;29;20047;-87
2023/04/08 08:43:44;;;;;;;17.40;5.28;;;12.30;99.90;;;;;;4939744;29;20347;-87
2023/04/08 08:46:11;;;;;;;13.90;5.00;;;12.30;99.90;;;;;;4939283;29;20544;-86
2023/04/08 08:48:40;;;;;;;11.90;5.20;;;12.20;99.90;;;;;;4939979;29;20047;-86
2023/04/08 08:51:07;;;;;;;11.80;4.47;;;12.40;99.90;;;;;;4939809;29;20054;-88
2023/04/08 08:53:34;;;;;;;10.90;4.43;;;12.70;99.90;;;;;;4938799;28;20466;-88
2023/04/08 08:56:01;;;;;;;12.95;4.45;;;13.00;99.90;;;;;;4939891;29;20047;-86
2023/04/08 08:58:43;;;;;;;15.18;4.97;;;13.20;99.90;;;;;;4939226;29;20433;-89
2023/04/08 09:01:09;;;;;;;10.90;4.47;;;13.30;99.90;;;;;;4923148;29;20458;-87
2023/04/08 09:03:36;;;;;;;17.77;4.82;;;13.40;99.90;;;;;;4939787;29;20044;-87
2023/04/08 09:06:04;;;;;;;11.60;4.40;;;13.40;99.90;;;;;;4923052;28;20051;-89
2023/04/08 09:08:31;;;;;;;16.25;4.90;;;13.60;99.90;;;;;;4939953;29;20047;-87
2023/04/08 09:10:57;;;;;;;14.10;4.72;;;13.70;99.90;;;;;;4940109;29;20490;-88
2023/04/08 09:13:24;;;;;;;13.43;4.25;;;13.70;99.90;;;;;;4938899;29;20466;-88
2023/04/08 09:15:51;;;;;;;15.13;4.60;;;13.70;99.90;;;;;;4923726;29;20051;-86
2023/04/08 09:18:18;;;;;;;10.38;4.63;;;13.60;99.90;;;;;;4939734;29;20055;-86
2023/04/08 09:20:45;;;;;;;10.20;4.25;;;13.50;99.90;;;;;;4922780;29;20043;-88
2023/04/08 09:23:11;;;;;;;11.40;4.25;;;13.30;99.90;;;;;;4956059;28;20134;-87
2023/04/08 09:25:38;;;;;;;10.02;4.32;;;13.30;99.90;;;;;;4938986;29;20104;-87
2023/04/08 09:28:23;;;;;;;8.93;3.80;;;13.40;99.90;;;;;;4939213;29;20040;-92
2023/04/08 09:30:51;;;;;;;8.25;3.33;;;13.80;99.90;;;;;;4943360;28;20047;-86
2023/04/08 09:33:20;;;;;;;10.15;3.00;;;14.10;99.90;;;;;;4942472;29;20051;-89
2023/04/08 09:35:46;;;;;;;9.00;3.13;;;14.20;99.90;;;;;;4943047;29;20146;-91
2023/04/08 09:38:13;;;;;;;11.95;3.67;;;14.40;99.90;;;;;;4927695;29;20047;-90
2023/04/08 09:40:52;;;;;;;10.75;4.22;;;14.60;99.90;;;;;;4942199;29;20047;-86
2023/04/08 09:43:19;;;;;;;9.38;3.85;;;14.60;99.90;;;;;;4927154;29;20043;-90
2023/04/08 09:45:46;;;;;;;10.73;3.90;;;14.50;99.90;;;;;;4943145;28;20047;-89
2023/04/08 09:48:13;;;;;;;9.40;3.83;;;14.60;99.90;;;;;;4941890;29;20474;-89
2023/04/08 09:50:42;;;;;;;8.52;3.53;;;14.60;99.90;;;;;;4943318;29;20134;-90
2023/04/08 09:53:08;;;;;;;9.73;3.83;;;14.60;99.90;;;;;;4927211;29;20134;-91
2023/04/08 09:55:35;;;;;;;9.77;4.00;;;14.70;99.90;;;;;;4943201;29;20083;-92
2023/04/08 09:58:03;;;;;;;10.73;3.85;;;15.00;99.90;;;;;;4942069;28;20039;-85
2023/04/08 10:00:30;;;;;;;7.88;3.10;;;15.20;99.90;;;;;;4941764;29;20052;-87
2023/04/08 10:02:57;;;;;;;9.82;3.35;;;15.10;99.90;;;;;;4926386;29;20051;-84
2023/04/08 10:05:23;;;;;;;7.97;3.50;;;15.00;99.90;;;;;;4925607;29;20039;-84
2023/04/08 10:07:50;;;;;;;10.10;3.45;;;15.10;99.90;;;;;;4926915;29;20130;-89
2023/04/08 10:10:17;;;;;;;7.40;3.15;;;14.90;99.90;;;;;;4943242;29;20122;-87
2023/04/08 10:12:44;;;;;;;10.93;3.72;;;14.90;99.90;;;;;;4960160;28;20118;-90
2023/04/08 10:15:10;;;;;;;10.23;3.70;;;14.90;99.90;;;;;;4943251;29;20047;-86
2023/04/08 10:17:37;;;;;;;10.30;3.50;;;14.80;99.90;;;;;;4935724;28;20057;-86
2023/04/08 10:20:05;;;;;;;9.77;3.83;;;14.70;99.90;;;;;;4938250;29;20386;-87
2023/04/08 10:22:32;;;;;;;12.93;4.07;;;14.40;99.90;;;;;;4906710;29;20040;-87
2023/04/08 10:27:47;;;;;;;10.88;4.68;;;14.10;99.90;;;;;;4941474;29;20150;-86
2023/04/08 10:30:14;;;;;;;12.73;4.70;;;14.10;99.90;;;;;;4941610;29;20047;-84
2023/04/08 10:32:41;;;;;;;10.88;4.47;;;14.10;99.90;;;;;;4958022;29;20085;-86
2023/04/08 10:35:10;;;;;;;13.07;4.60;;;14.10;99.90;;;;;;4942100;29;20118;-84
2023/04/08 10:37:37;;;;;;;8.85;4.13;;;14.10;99.90;;;;;;4926738;29;20047;-85
2023/04/08 10:40:04;;;;;;;9.60;4.05;;;14.30;99.90;;;;;;4940124;28;20058;-85
2023/04/08 10:42:31;;;;;;;10.60;4.15;;;14.70;99.90;;;;;;4925654;29;20386;-85
2023/04/08 10:44:59;;;;;;;12.13;4.32;;;15.30;99.90;;;;;;4941605;29;20035;-86
2023/04/08 10:47:27;;;;;;;11.40;4.15;;;15.80;99.90;;;;;;4940826;29;20057;-87
2023/04/08 10:49:54;;;;;;;11.85;4.68;;;16.10;99.90;;;;;;4926734;29;20046;-89
2023/04/08 10:52:22;;;;;;;15.45;4.45;;;16.40;99.90;;;;;;4926006;28;20047;-86
2023/04/08 10:54:51;;;;;;;10.07;4.10;;;16.60;99.90;;;;;;4922464;29;20474;-89
2023/04/08 10:57:19;;;;;;;10.40;3.97;;;16.50;99.90;;;;;;4942130;29;20385;-89
2023/04/08 10:59:46;;;;;;;13.93;4.43;;;16.10;99.90;;;;;;4936286;28;20133;-88
2023/04/08 11:02:15;;;;;;;10.32;4.50;;;15.90;99.90;;;;;;4960879;28;20458;-87
2023/04/08 11:04:43;;;;;;;9.98;4.28;;;15.70;99.90;;;;;;4936685;29;20040;-88
2023/04/08 11:07:16;;;;;;;8.85;4.07;;;15.60;99.90;;;;;;4908182;29;20060;-89
2023/04/08 11:09:46;;;;;;;11.77;3.95;;;15.60;99.90;;;;;;4916948;29;20109;-89
2023/04/08 11:12:15;;;;;;;12.10;3.90;;;15.90;99.90;;;;;;4941347;29;20138;-90
2023/04/08 11:14:42;;;;;;;10.02;4.15;;;16.10;99.90;;;;;;4940482;29;20073;-88
2023/04/08 11:17:09;;;;;;;7.53;3.50;;;16.90;99.90;;;;;;4941751;29;20047;-91
2023/04/08 11:19:36;;;;;;;8.88;3.70;;;17.30;99.90;;;;;;4950208;28;20043;-92
2023/04/08 11:22:06;;;;;;;7.72;3.50;;;17.80;99.90;;;;;;4959521;28;20456;-83
2023/04/08 11:24:33;;;;;;;10.93;4.03;;;18.20;96.10;;;;;;4976091;28;20085;-81
2023/04/08 11:27:00;;;;;;;10.65;4.00;;;18.30;94.30;;;;;;4942772;28;20405;-83
2023/04/08 11:29:26;;;;;;;9.10;3.63;;;18.50;97.10;;;;;;4975203;28;20062;-80
2023/04/08 11:31:53;;;;;;;8.15;3.13;;;18.60;94.90;;;;;;4962791;28;20082;-81
2023/04/08 11:34:20;;;;;;;7.15;3.50;;;18.60;91.10;;;;;;4955752;28;20335;-80
2023/04/08 11:36:46;;;;;;;9.00;4.15;;;18.30;91.10;;;;;;4956890;29;20130;-80
2023/04/08 11:39:13;;;;;;;9.98;3.70;;;17.90;88.80;;;;;;4956460;28;20102;-80
2023/04/08 11:41:40;;;;;;;8.57;3.70;;;17.70;92.80;;;;;;4956940;29;20083;-82
2023/04/08 11:44:06;;;;;;;7.78;3.25;;;17.60;91.00;;;;;;4939473;29;20504;-82
2023/04/08 11:46:34;;;;;;;11.98;3.60;;;17.50;92.40;;;;;;4946932;29;20039;-81
2023/04/08 11:49:01;;;;;;;9.25;3.63;;;17.30;90.90;;;;;;4925820;28;20493;-82
2023/04/08 11:51:27;;;;;;;7.80;3.20;;;17.30;91.10;;;;;;4975809;28;20434;-81
2023/04/08 11:53:54;;;;;;;8.32;3.53;;;17.50;88.90;;;;;;4945041;29;20047;-85
2023/04/08 11:56:22;;;;;;;11.10;3.55;;;17.60;93.10;;;;;;4939734;29;20051;-82
2023/04/08 11:58:49;;;;;;;10.32;3.42;;;17.80;91.80;;;;;;4956631;29;20055;-84
2023/04/08 12:01:16;;;;;;;8.45;3.30;;;17.90;91.60;;;;;;4938429;28;20054;-82
2023/04/08 12:03:42;;;;;;;10.30;3.35;;;17.80;92.40;;;;;;4939283;29;20035;-81
2023/04/08 12:06:09;;;;;;;8.10;3.65;;;17.60;90.90;;;;;;4955146;29;20106;-82
2023/04/08 12:08:36;;;;;;;10.18;3.50;;;17.50;89.80;;;;;;4939738;29;20469;-80
2023/04/08 12:11:03;;;;;;;10.23;3.92;;;17.60;92.90;;;;;;4956620;29;20054;-82
2023/04/08 12:13:45;;;;;;;7.63;3.00;;;17.70;90.40;;;;;;4940457;28;20134;-81
2023/04/08 12:16:13;;;;;;;7.03;3.10;;;17.60;90.40;;;;;;4957708;28;20047;-81
2023/04/08 12:18:39;;;;;;;7.78;3.33;;;18.00;91.40;;;;;;4939260;29;20135;-81
2023/04/08 12:21:06;;;;;;;9.18;3.10;;;18.20;90.50;;;;;;4938329;29;20049;-81
2023/04/08 12:23:34;;;;;;;19.63;3.83;;;18.00;87.70;;;;;;4955962;28;20039;-82
2023/04/08 12:26:01;;;;;;;8.35;3.20;;;17.50;87.10;;;;;;4938609;28;20047;-81
2023/04/08 12:28:27;;;;;;;7.97;3.13;;;17.20;90.10;;;;;;4956447;29;20462;-82
2023/04/08 12:30:54;;;;;;;7.15;3.53;;;17.80;90.80;;;;;;4939730;29;20047;-82
2023/04/08 12:33:21;;;;;;;6.82;3.13;;;18.80;88.00;;;;;;4954589;29;20049;-81
2023/04/08 12:35:47;;;;;;;9.85;2.90;;;19.40;80.70;;;;;;4939571;29;20043;-81
2023/04/08 12:38:14;;;;;;;7.53;3.13;;;20.00;84.50;;;;;;4939310;29;20055;-81
2023/04/08 12:40:41;;;;;;;9.05;3.42;;;20.50;79.10;;;;;;4922360;29;20196;-82
2023/04/08 12:43:07;;;;;;;6.90;3.30;;;21.00;79.30;;;;;;4955792;29;20489;-81
2023/04/08 12:45:34;;;;;;;8.40;3.20;;;20.70;78.20;;;;;;4939715;29;20402;-80
2023/04/08 12:48:01;;;;;;;7.38;3.17;;;19.90;76.40;;;;;;4955149;29;20049;-80
2023/04/08 12:50:27;;;;;;;6.18;2.75;;;18.90;79.30;;;;;;4956103;28;20172;-80
2023/04/08 12:52:54;;;;;;;7.47;3.10;;;18.10;78.30;;;;;;4937776;29;20110;-79
2023/04/08 12:55:23;;;;;;;9.00;2.97;;;18.30;80.90;;;;;;4956167;29;20043;-80
2023/04/08 12:57:50;;;;;;;10.30;3.47;;;19.10;82.30;;;;;;4939608;29;20058;-81
2023/04/08 13:00:17;;;;;;;8.30;3.40;;;19.70;75.50;;;;;;4949673;28;20051;-79
2023/04/08 13:02:43;;;;;;;7.72;3.22;;;20.40;75.80;;;;;;4952157;29;20134;-85
2023/04/08 13:05:10;;;;;;;8.23;3.95;;;21.40;76.80;;;;;;4948460;28;20553;-83
2023/04/08 13:07:37;;;;;;;7.00;4.10;;;21.80;72.20;;;;;;4938740;28;20055;-82
2023/04/08 13:10:05;;;;;;;7.15;3.15;;;21.80;75.00;;;;;;4931771;29;20047;-81
2023/04/08 13:12:32;;;;;;;8.05;3.10;;;20.90;71.40;;;;;;4936188;29;20397;-82
2023/04/08 13:15:00;;;;;;;9.20;3.65;;;20.40;72.60;;;;;;4940706;29;20077;-84
2023/04/08 13:17:27;;;;;;;8.98;3.22;;;20.10;75.20;;;;;;4958925;28;20059;-81
2023/04/08 13:19:53;;;;;;;8.82;3.35;;;19.90;73.20;;;;;;4925447;29;20043;-82
2023/04/08 13:22:20;;;;;;;6.85;2.95;;;19.70;76.40;;;;;;4958185;29;20130;-83
2023/04/08 13:24:46;;;;;;;9.35;3.35;;;19.80;77.40;;;;;;4959236;28;20043;-82
2023/04/08 13:27:16;;;;;;;7.82;3.60;;;20.20;76.80;;;;;;4958109;28;20109;-82
2023/04/08 13:29:43;;;;;;;9.65;3.70;;;19.60;74.80;;;;;;4941505;29;20061;-82
2023/04/08 13:32:09;;;;;;;8.63;3.35;;;19.20;75.40;;;;;;4958574;29;20039;-82
2023/04/08 13:34:36;;;;;;;9.25;3.65;;;18.80;76.40;;;;;;4957996;28;20094;-81
2023/04/08 13:37:03;;;;;;;6.72;3.00;;;18.40;77.90;;;;;;4958273;28;20039;-83
2023/04/08 13:39:29;;;;;;;7.72;3.60;;;18.60;76.90;;;;;;4958181;29;20047;-86
2023/04/08 13:41:57;;;;;;;5.78;2.95;;;19.60;75.40;;;;;;4941524;29;20073;-85
2023/04/08 13:44:24;;;;;;;12.35;3.13;;;20.20;73.10;;;;;;4926280;29;20374;-87
2023/04/08 13:46:51;;;;;;;10.07;3.17;;;21.40;76.40;;;;;;4941257;29;20044;-87
2023/04/08 13:49:18;;;;;;;7.35;3.40;;;22.10;71.10;;;;;;4941500;29;20047;-85
2023/04/08 13:51:45;;;;;;;8.50;3.50;;;21.90;67.60;;;;;;4958119;28;20053;-82
2023/04/08 13:54:11;;;;;;;9.50;3.13;;;21.80;71.20;;;;;;4940390;29;20078;-82
2023/04/08 13:56:38;;;;;;;7.60;3.60;;;22.30;68.70;;;;;;4941710;29;20051;-83
2023/04/08 13:59:05;;;;;;;7.55;3.47;;;22.20;66.70;;;;;;4958201;29;20047;-81